Time;durP1;ratioP1;P1;durP2;ratioP2;P2;SDS_P1;SDS_P2;PMS_P1;PMS_P2;Temp;Humidity;BMP_temperature;BMP_pressure;BME280_temperature;BME280_humidity;BME280_pressure;Samples;Min_cycle;Max_cycle;Signal;HPM_P1;HPM_P2
2023/04/05 00:01:32;;;;;;;6.65;2.30;;;1.60;99.90;;;;;;5107065;27;20398;-79
2023/04/05 00:03:59;;;;;;;6.22;2.22;;;0.80;99.90;;;;;;5106065;27;20051;-79
2023/04/05 00:06:27;;;;;;;6.35;2.33;;;0.80;99.90;;;;;;5073188;27;20047;-79
2023/04/05 00:09:03;;;;;;;4.65;2.50;;;0.80;99.90;;;;;;5072345;27;20402;-79
2023/04/05 00:11:31;;;;;;;10.27;3.00;;;0.80;99.90;;;;;;5106917;27;20149;-79
2023/04/05 00:13:59;;;;;;;4.40;2.85;;;0.80;99.90;;;;;;5105951;27;20039;-79
2023/04/05 00:16:26;;;;;;;5.60;2.70;;;0.70;99.90;;;;;;5089475;27;20494;-79
2023/04/05 00:18:52;;;;;;;4.70;2.83;;;1.90;99.90;;;;;;5106754;27;20138;-79
2023/04/05 00:21:22;;;;;;;6.68;2.58;;;0.70;99.90;;;;;;5106304;27;20482;-79
2023/04/05 00:23:52;;;;;;;3.45;2.22;;;0.70;99.90;;;;;;5106396;28;20121;-80
2023/04/05 00:26:19;;;;;;;6.38;3.38;;;0.70;99.90;;;;;;5088869;27;20799;-80
2023/04/05 00:28:47;;;;;;;8.18;2.97;;;1.50;99.90;;;;;;5107041;27;20478;-79
2023/04/05 00:31:12;;;;;;;7.45;2.45;;;0.60;99.90;;;;;;5106355;27;20074;-79
2023/04/05 00:33:38;;;;;;;9.90;2.72;;;0.60;99.90;;;;;;5106165;28;20050;-80
2023/04/05 00:36:18;;;;;;;8.40;3.85;;;0.60;99.90;;;;;;5106517;28;20087;-79
2023/04/05 00:38:46;;;;;;;4.38;2.38;;;0.50;99.90;;;;;;5105402;28;20126;-79
2023/04/05 00:41:12;;;;;;;8.30;2.47;;;0.50;99.90;;;;;;5106403;28;20046;-79
2023/04/05 00:43:39;;;;;;;8.52;2.97;;;0.40;99.90;;;;;;5088811;28;20053;-78
2023/04/05 00:46:06;;;;;;;4.57;2.83;;;0.40;99.90;;;;;;5106369;28;20041;-79
2023/04/05 00:48:32;;;;;;;6.35;2.50;;;0.40;99.90;;;;;;5105696;28;20051;-79
2023/04/05 00:50:58;;;;;;;7.20;2.83;;;0.40;99.90;;;;;;5105764;28;20494;-79
2023/04/05 00:53:28;;;;;;;4.45;2.63;;;0.90;99.90;;;;;;5106272;28;20043;-79
2023/04/05 00:55:54;;;;;;;4.50;2.65;;;0.30;99.90;;;;;;5088967;28;20042;-79
2023/04/05 00:58:22;;;;;;;9.85;2.75;;;0.30;99.90;;;;;;5106151;28;20039;-79
2023/04/05 01:01:12;;;;;;;4.32;2.63;;;0.30;99.90;;;;;;5105526;28;20054;-79
2023/04/05 01:03:43;;;;;;;7.30;2.63;;;0.30;99.90;;;;;;5124449;28;20433;-78
2023/04/05 01:06:36;;;;;;;9.32;3.47;;;0.30;99.90;;;;;;5106018;28;20047;-79
2023/04/05 01:09:16;;;;;;;7.18;3.15;;;0.30;99.90;;;;;;5088897;27;20368;-79
2023/04/05 01:11:46;;;;;;;8.82;2.88;;;0.30;99.90;;;;;;5106263;28;20054;-79
2023/04/05 01:14:11;;;;;;;5.55;2.42;;;1.70;99.90;;;;;;5105470;28;20054;-79
2023/04/05 01:16:37;;;;;;;4.25;2.42;;;1.60;99.90;;;;;;5105460;28;20043;-78
2023/04/05 01:19:03;;;;;;;7.60;3.00;;;0.20;99.90;;;;;;5106290;27;20051;-78
2023/04/05 01:21:36;;;;;;;4.88;2.83;;;0.20;99.90;;;;;;5109182;27;20051;-78
2023/04/05 01:24:21;;;;;;;6.45;2.92;;;0.10;99.90;;;;;;5110011;27;20062;-78
2023/04/05 01:27:06;;;;;;;7.40;3.33;;;0.10;99.90;;;;;;5092030;27;20051;-78
2023/04/05 01:29:46;;;;;;;6.85;3.42;;;0.10;99.90;;;;;;5109773;27;20096;-78
2023/04/05 01:32:24;;;;;;;6.90;3.30;;;0.80;99.90;;;;;;5109589;27;20050;-78
2023/04/05 01:35:03;;;;;;;6.18;3.45;;;0.00;99.90;;;;;;5109261;27;20051;-78
2023/04/05 01:37:33;;;;;;;5.05;2.70;;;0.00;99.90;;;;;;5110534;27;20043;-78
2023/04/05 01:40:00;;;;;;;8.55;3.13;;;0.70;99.90;;;;;;5109155;27;20118;-78
2023/04/05 01:42:26;;;;;;;6.30;3.33;;;-0.10;99.90;;;;;;5109473;27;20074;-79
2023/04/05 01:44:52;;;;;;;8.93;3.38;;;0.00;99.90;;;;;;5093014;27;20180;-79
2023/04/05 01:47:21;;;;;;;5.90;2.85;;;0.00;99.90;;;;;;5108431;27;20051;-78
2023/04/05 01:49:46;;;;;;;4.40;2.60;;;0.00;99.90;;;;;;5109562;27;20509;-78
2023/04/05 01:52:12;;;;;;;5.25;3.08;;;-0.10;99.90;;;;;;5127197;27;20047;-78
2023/04/05 01:54:38;;;;;;;8.43;4.25;;;-0.10;99.90;;;;;;5109746;27;20454;-79
2023/04/05 01:57:04;;;;;;;8.63;3.10;;;-0.10;99.90;;;;;;5109242;27;20043;-79
2023/04/05 01:59:30;;;;;;;8.27;2.85;;;-0.10;99.90;;;;;;5091593;27;20054;-79
2023/04/05 02:01:56;;;;;;;6.45;3.38;;;-0.10;99.90;;;;;;5109118;27;20497;-79
2023/04/05 02:04:22;;;;;;;5.45;3.22;;;-0.10;99.90;;;;;;5126259;27;20062;-79
2023/04/05 02:06:47;;;;;;;7.07;3.30;;;-0.10;99.90;;;;;;5109329;27;20053;-79
2023/04/05 02:09:13;;;;;;;5.38;3.25;;;-0.10;99.90;;;;;;5107947;27;20640;-79
2023/04/05 02:11:39;;;;;;;7.00;2.90;;;1.30;99.90;;;;;;5109323;27;20049;-79
2023/04/05 02:14:05;;;;;;;5.65;3.13;;;-0.10;99.90;;;;;;5107799;27;20125;-79
2023/04/05 02:16:33;;;;;;;7.50;3.75;;;0.80;99.90;;;;;;5091465;27;20088;-79
2023/04/05 02:18:59;;;;;;;5.30;2.45;;;-0.20;99.90;;;;;;5108766;27;20508;-79
2023/04/05 02:21:25;;;;;;;8.27;2.83;;;-0.30;99.90;;;;;;5090912;27;20043;-79
2023/04/05 02:23:52;;;;;;;6.18;3.25;;;-0.30;99.90;;;;;;5109202;27;20081;-79
2023/04/05 02:26:18;;;;;;;8.18;3.17;;;-0.30;99.90;;;;;;5107848;27;20149;-78
2023/04/05 02:28:44;;;;;;;5.28;2.72;;;-0.30;99.90;;;;;;5092103;27;20050;-78
2023/04/05 02:31:11;;;;;;;5.38;3.00;;;-0.30;99.90;;;;;;5106328;27;20406;-78
2023/04/05 02:33:38;;;;;;;7.32;3.75;;;-0.30;99.90;;;;;;5057905;27;20043;-78
2023/04/05 02:36:08;;;;;;;5.80;2.80;;;-0.30;99.90;;;;;;5126904;27;20074;-78
2023/04/05 02:38:35;;;;;;;6.57;2.92;;;-0.40;99.90;;;;;;5126123;27;20589;-78
2023/04/05 02:41:01;;;;;;;7.30;3.03;;;-0.40;99.90;;;;;;5127006;27;20080;-78
2023/04/05 02:43:27;;;;;;;8.65;2.90;;;-0.40;99.90;;;;;;5090716;27;20043;-79
2023/04/05 02:45:52;;;;;;;7.10;3.45;;;-0.40;99.90;;;;;;5091996;27;20074;-78
2023/04/05 02:48:18;;;;;;;4.03;2.50;;;-0.40;99.90;;;;;;5107619;27;20047;-78
2023/04/05 02:50:50;;;;;;;4.95;2.75;;;0.70;99.90;;;;;;5090816;27;20047;-79
2023/04/05 02:53:17;;;;;;;4.77;2.53;;;-0.50;99.90;;;;;;5108723;27;20784;-79
2023/04/05 02:55:52;;;;;;;3.55;2.30;;;-0.50;99.90;;;;;;5107144;27;20069;-78
2023/04/05 02:58:17;;;;;;;7.70;3.00;;;-0.50;99.90;;;;;;5108320;27;20098;-78
2023/04/05 03:00:50;;;;;;;5.43;3.08;;;0.60;99.90;;;;;;5090513;27;20054;-78
2023/04/05 03:03:22;;;;;;;6.13;3.38;;;-0.60;99.90;;;;;;5090818;27;20138;-78
2023/04/05 03:06:00;;;;;;;5.65;3.10;;;-0.60;99.90;;;;;;5126374;27;20062;-78
2023/04/05 03:08:27;;;;;;;10.00;3.63;;;-0.60;99.90;;;;;;5107409;27;20446;-78
2023/04/05 03:10:53;;;;;;;6.68;3.70;;;-0.60;99.90;;;;;;5126536;27;20390;-78
2023/04/05 03:13:19;;;;;;;8.02;3.55;;;0.70;99.90;;;;;;5125485;27;20050;-78
2023/04/05 03:15:44;;;;;;;6.70;2.97;;;-0.60;99.90;;;;;;5108176;27;20054;-78
2023/04/05 03:18:10;;;;;;;6.22;2.95;;;-0.60;99.90;;;;;;5125579;27;20497;-78
2023/04/05 03:20:40;;;;;;;6.97;3.20;;;-0.70;99.90;;;;;;5107992;27;20039;-78
2023/04/05 03:23:09;;;;;;;5.50;2.90;;;-0.70;99.90;;;;;;5107801;27;20067;-78
2023/04/05 03:25:40;;;;;;;7.25;3.25;;;-0.70;99.90;;;;;;5125367;27;20047;-78
2023/04/05 03:28:07;;;;;;;5.35;2.67;;;-0.80;99.90;;;;;;5107686;27;20073;-78
2023/04/05 03:30:34;;;;;;;5.40;2.45;;;-0.80;99.90;;;;;;5125262;27;20478;-78
2023/04/05 03:33:00;;;;;;;5.53;2.75;;;-0.80;99.90;;;;;;5090988;27;20051;-78
2023/04/05 03:35:28;;;;;;;6.07;2.75;;;-0.80;99.90;;;;;;5106761;27;20100;-79
2023/04/05 03:37:54;;;;;;;5.85;3.10;;;-0.80;99.90;;;;;;5125259;27;20127;-79
2023/04/05 03:40:21;;;;;;;5.35;3.03;;;-0.80;99.90;;;;;;5107169;27;20047;-78
2023/04/05 03:42:46;;;;;;;6.45;3.30;;;-0.80;99.90;;;;;;5088781;27;20047;-79
2023/04/05 03:45:12;;;;;;;5.93;2.95;;;-0.90;99.90;;;;;;5125731;27;20050;-80
2023/04/05 03:47:38;;;;;;;6.80;3.03;;;-0.80;99.90;;;;;;5089430;27;20390;-80
2023/04/05 03:50:04;;;;;;;4.95;3.20;;;-0.50;99.90;;;;;;5107448;27;20035;-78
2023/04/05 03:52:30;;;;;;;6.95;2.90;;;-0.80;99.90;;;;;;5106385;27;20055;-78
2023/04/05 03:54:56;;;;;;;8.00;3.08;;;-0.90;99.90;;;;;;5107449;27;20122;-78
2023/04/05 03:57:21;;;;;;;9.25;3.33;;;-0.90;99.90;;;;;;5107091;27;20084;-78
2023/04/05 03:59:47;;;;;;;5.57;3.47;;;-0.90;99.90;;;;;;5089069;27;20053;-78
2023/04/05 04:02:13;;;;;;;6.88;3.53;;;-0.90;99.90;;;;;;5106633;27;20043;-78
2023/04/05 04:04:38;;;;;;;8.30;3.70;;;0.30;99.90;;;;;;5106025;27;20058;-77
2023/04/05 04:07:04;;;;;;;5.75;2.88;;;-1.00;99.90;;;;;;5106676;27;20043;-80
2023/04/05 04:09:30;;;;;;;8.20;3.63;;;-1.00;99.90;;;;;;5124611;27;20043;-77
2023/04/05 04:11:56;;;;;;;8.55;3.83;;;0.10;99.90;;;;;;5106772;27;20116;-78
2023/04/05 04:14:22;;;;;;;7.68;4.32;;;-1.10;99.90;;;;;;5124962;27;20039;-79
2023/04/05 04:16:48;;;;;;;6.45;3.55;;;-1.10;99.90;;;;;;5106373;27;20043;-78
2023/04/05 04:19:19;;;;;;;7.22;3.78;;;-1.10;99.90;;;;;;5106428;27;20043;-79
2023/04/05 04:21:49;;;;;;;8.40;3.70;;;-1.10;99.90;;;;;;5105758;27;20039;-79
2023/04/05 04:24:17;;;;;;;12.18;5.43;;;-1.10;99.90;;;;;;5090638;27;20055;-79
2023/04/05 04:26:47;;;;;;;7.05;4.30;;;-1.10;99.90;;;;;;5124227;27;20122;-80
2023/04/05 04:29:15;;;;;;;11.38;5.18;;;-1.10;99.90;;;;;;5106154;27;20092;-79
2023/04/05 04:31:44;;;;;;;8.75;4.85;;;0.00;99.90;;;;;;5089431;28;20054;-80
2023/04/05 04:34:13;;;;;;;10.35;4.78;;;-1.20;99.90;;;;;;5123903;27;20558;-80
2023/04/05 04:36:43;;;;;;;8.80;4.43;;;-1.20;99.90;;;;;;5107009;27;20108;-80
2023/04/05 04:39:12;;;;;;;7.00;4.45;;;-0.20;99.90;;;;;;5105454;28;20502;-79
2023/04/05 04:41:43;;;;;;;10.82;5.13;;;-1.10;99.90;;;;;;5106624;28;20055;-82
2023/04/05 04:44:13;;;;;;;7.50;4.90;;;-1.20;99.90;;;;;;5106490;28;20090;-79
2023/04/05 04:46:42;;;;;;;9.07;5.43;;;-1.30;99.90;;;;;;5088993;28;20051;-78
2023/04/05 04:49:09;;;;;;;8.70;5.47;;;-1.30;99.90;;;;;;5106269;28;20055;-78
2023/04/05 04:51:38;;;;;;;10.98;5.15;;;-1.30;99.90;;;;;;5105154;28;20043;-78
2023/04/05 04:54:04;;;;;;;17.35;6.38;;;-1.30;99.90;;;;;;5125528;27;20258;-78
2023/04/05 04:56:30;;;;;;;10.18;4.72;;;-1.30;99.90;;;;;;5109439;27;20045;-79
2023/04/05 04:58:56;;;;;;;8.27;4.80;;;-1.30;99.90;;;;;;5110409;27;20054;-78
2023/04/05 05:01:23;;;;;;;13.88;5.82;;;-1.30;99.90;;;;;;5109956;27;20103;-79
2023/04/05 05:03:52;;;;;;;11.95;6.05;;;-1.10;99.90;;;;;;5089131;28;20490;-81
2023/04/05 05:06:20;;;;;;;10.48;6.13;;;-1.40;99.90;;;;;;5106812;28;20043;-78
2023/04/05 05:08:47;;;;;;;10.50;6.20;;;-1.40;99.90;;;;;;5105592;28;20059;-78
2023/04/05 05:11:12;;;;;;;13.15;5.80;;;0.10;99.90;;;;;;5106712;28;20103;-78
2023/04/05 05:13:38;;;;;;;12.20;6.25;;;-1.40;99.90;;;;;;5105770;28;20039;-78
2023/04/05 05:16:04;;;;;;;17.13;6.75;;;-1.40;99.90;;;;;;5089355;28;20039;-79
2023/04/05 05:18:30;;;;;;;13.10;6.47;;;-1.40;99.90;;;;;;5106603;28;20043;-79
2023/04/05 05:20:56;;;;;;;10.27;6.03;;;-0.80;99.90;;;;;;5105762;28;20050;-79
2023/04/05 05:23:21;;;;;;;13.65;5.22;;;-0.10;99.90;;;;;;5106567;28;20047;-78
2023/04/05 05:25:47;;;;;;;12.63;6.00;;;0.10;99.90;;;;;;5105815;28;20066;-78
2023/04/05 05:28:13;;;;;;;11.23;6.53;;;-1.40;99.90;;;;;;5089542;28;20039;-78
2023/04/05 05:30:39;;;;;;;10.20;6.53;;;-1.30;99.90;;;;;;5105668;28;20039;-78
2023/04/05 05:33:04;;;;;;;12.27;6.60;;;0.20;99.90;;;;;;5106812;28;20048;-78
2023/04/05 05:35:30;;;;;;;10.30;6.43;;;-1.30;99.90;;;;;;5089429;28;20079;-78
2023/04/05 05:37:56;;;;;;;14.80;6.97;;;-1.20;99.90;;;;;;5071836;28;20070;-78
2023/04/05 05:40:25;;;;;;;11.23;5.88;;;0.00;99.90;;;;;;5106093;28;20047;-79
2023/04/05 05:42:51;;;;;;;14.07;6.63;;;-1.10;99.90;;;;;;5088900;28;20043;-79
2023/04/05 05:45:17;;;;;;;14.50;7.72;;;-1.10;99.90;;;;;;5089249;28;20589;-78
2023/04/05 05:47:42;;;;;;;15.35;8.07;;;-1.00;99.90;;;;;;5105504;28;20043;-77
2023/04/05 05:50:08;;;;;;;26.05;9.43;;;-0.90;99.90;;;;;;5106210;28;20043;-77
2023/04/05 05:52:34;;;;;;;11.63;7.15;;;-0.80;99.90;;;;;;5105912;28;20127;-78
2023/04/05 05:55:00;;;;;;;14.43;7.68;;;0.50;99.90;;;;;;5071825;28;20101;-81
2023/04/05 05:57:26;;;;;;;16.75;7.70;;;0.00;99.90;;;;;;5106417;28;20039;-79
2023/04/05 05:59:52;;;;;;;17.92;9.55;;;-0.60;99.90;;;;;;5087937;28;20413;-80
2023/04/05 06:02:17;;;;;;;13.20;8.35;;;-0.60;99.90;;;;;;5088981;28;20048;-81
2023/04/05 06:04:44;;;;;;;11.55;7.45;;;0.70;99.90;;;;;;5087380;28;20056;-80
2023/04/05 06:07:10;;;;;;;14.43;8.65;;;-0.40;99.90;;;;;;5106018;28;20040;-80
2023/04/05 06:09:35;;;;;;;14.02;8.43;;;-0.30;99.90;;;;;;5106336;28;20386;-78
2023/04/05 06:12:01;;;;;;;18.30;8.50;;;-0.20;99.90;;;;;;5106771;28;20074;-78
2023/04/05 06:14:28;;;;;;;14.77;9.30;;;-0.10;99.90;;;;;;5106767;28;20067;-79
2023/04/05 06:16:54;;;;;;;12.43;8.38;;;-0.10;99.90;;;;;;5104971;28;20393;-78
2023/04/05 06:19:20;;;;;;;14.77;9.38;;;0.60;99.90;;;;;;5107214;28;20039;-79
2023/04/05 06:21:46;;;;;;;17.52;8.75;;;0.10;99.90;;;;;;5105966;28;20039;-78
2023/04/05 06:24:11;;;;;;;17.58;9.20;;;0.30;99.90;;;;;;5106838;28;20047;-78
2023/04/05 06:26:37;;;;;;;19.42;9.65;;;0.40;99.90;;;;;;5105633;28;20123;-79
2023/04/05 06:29:03;;;;;;;16.25;10.13;;;0.60;99.90;;;;;;5106857;28;20051;-78
2023/04/05 06:31:33;;;;;;;17.35;9.88;;;0.60;99.90;;;;;;5106301;28;20118;-79
2023/04/05 06:34:00;;;;;;;14.15;9.55;;;0.80;99.90;;;;;;5106050;28;20131;-78
2023/04/05 06:36:25;;;;;;;15.82;9.15;;;0.90;99.90;;;;;;5105523;28;20058;-78
2023/04/05 06:38:52;;;;;;;17.77;10.73;;;1.90;99.90;;;;;;5105791;28;20118;-78
2023/04/05 06:41:17;;;;;;;16.48;9.88;;;1.20;99.90;;;;;;5106675;28;20544;-79
2023/04/05 06:43:43;;;;;;;15.63;9.25;;;1.30;99.90;;;;;;5105840;28;20035;-78
2023/04/05 06:46:11;;;;;;;18.67;9.90;;;2.50;99.90;;;;;;5106749;28;20040;-79
2023/04/05 06:48:37;;;;;;;14.65;9.40;;;2.90;99.90;;;;;;5104566;28;20052;-79
2023/04/05 06:51:03;;;;;;;17.02;9.32;;;1.80;99.90;;;;;;5105923;28;20114;-79
2023/04/05 06:53:29;;;;;;;16.17;10.30;;;1.80;99.90;;;;;;5106517;28;20154;-79
2023/04/05 06:55:56;;;;;;;14.73;8.73;;;1.90;99.90;;;;;;5103895;28;20048;-79
2023/04/05 06:58:22;;;;;;;12.25;6.88;;;2.10;99.90;;;;;;5104896;28;20118;-79
2023/04/05 07:00:49;;;;;;;16.63;7.65;;;2.20;99.90;;;;;;5104950;28;20043;-79
2023/04/05 07:03:15;;;;;;;14.02;6.82;;;2.30;99.90;;;;;;5104732;28;20056;-79
2023/04/05 07:05:48;;;;;;;11.27;7.00;;;2.50;99.90;;;;;;5105666;28;20065;-79
2023/04/05 07:08:14;;;;;;;13.18;6.95;;;2.60;99.90;;;;;;5103861;28;20054;-79
2023/04/05 07:10:40;;;;;;;11.80;6.75;;;2.70;99.90;;;;;;5104420;28;20039;-79
2023/04/05 07:13:06;;;;;;;16.55;6.47;;;2.80;99.90;;;;;;5104004;28;20431;-79
2023/04/05 07:15:32;;;;;;;12.90;7.43;;;3.00;99.90;;;;;;5088007;28;20134;-79
2023/04/05 07:17:57;;;;;;;12.27;6.88;;;3.00;99.90;;;;;;5103179;28;20471;-79
2023/04/05 07:20:23;;;;;;;11.10;6.75;;;3.90;99.90;;;;;;5104491;28;20039;-78
2023/04/05 07:22:48;;;;;;;9.75;6.00;;;3.30;99.90;;;;;;5087361;28;20097;-79
2023/04/05 07:25:14;;;;;;;8.68;6.25;;;3.40;99.90;;;;;;5104156;28;20051;-79
2023/04/05 07:27:40;;;;;;;12.27;7.15;;;3.50;99.90;;;;;;5104605;28;20403;-79
2023/04/05 07:30:06;;;;;;;19.98;7.50;;;3.60;99.90;;;;;;5086193;28;20351;-79
2023/04/05 07:32:33;;;;;;;10.82;6.60;;;3.70;99.90;;;;;;5087203;28;20050;-79
2023/04/05 07:34:59;;;;;;;11.57;6.18;;;3.90;99.90;;;;;;5104490;28;20070;-79
2023/04/05 07:37:26;;;;;;;12.52;6.28;;;4.20;99.90;;;;;;5087526;28;20509;-79
2023/04/05 07:39:52;;;;;;;13.23;6.88;;;5.20;99.90;;;;;;5103017;28;20055;-79
2023/04/05 07:42:20;;;;;;;10.13;6.57;;;4.10;99.90;;;;;;5103923;28;20429;-79
2023/04/05 07:44:46;;;;;;;11.65;6.35;;;4.20;99.90;;;;;;5103748;28;20526;-80
2023/04/05 07:47:12;;;;;;;9.60;5.88;;;4.40;99.90;;;;;;5103119;28;20138;-80
2023/04/05 07:49:38;;;;;;;11.32;6.22;;;4.50;99.90;;;;;;5103960;28;20490;-79
2023/04/05 07:52:05;;;;;;;15.73;6.90;;;4.60;99.90;;;;;;5102918;28;20051;-79
2023/04/05 07:54:32;;;;;;;13.82;7.68;;;4.70;99.90;;;;;;5104544;28;20059;-79
2023/04/05 07:56:58;;;;;;;12.77;6.80;;;4.80;99.90;;;;;;5103215;28;20043;-79
2023/04/05 07:59:24;;;;;;;9.07;6.03;;;5.30;99.90;;;;;;5102929;28;20046;-79
2023/04/05 08:01:49;;;;;;;14.80;6.50;;;5.00;99.90;;;;;;5103624;28;20493;-79
2023/04/05 08:04:15;;;;;;;17.13;8.00;;;6.30;99.90;;;;;;5102218;28;20130;-79
2023/04/05 08:06:41;;;;;;;14.48;6.22;;;5.30;99.90;;;;;;5086711;28;20100;-79
2023/04/05 08:09:07;;;;;;;11.38;6.28;;;5.40;99.90;;;;;;5102492;28;20051;-79
2023/04/05 08:11:34;;;;;;;10.45;6.78;;;5.50;99.90;;;;;;5103870;28;20483;-79
2023/04/05 08:14:00;;;;;;;11.07;6.90;;;6.90;99.90;;;;;;5104095;28;20061;-79
2023/04/05 08:16:26;;;;;;;13.10;6.25;;;5.70;99.90;;;;;;5104650;28;20103;-79
2023/04/05 08:18:51;;;;;;;13.70;5.80;;;5.80;99.90;;;;;;5103207;28;20054;-79
2023/04/05 08:21:17;;;;;;;13.00;6.47;;;5.90;99.90;;;;;;5102420;28;20043;-79
2023/04/05 08:23:43;;;;;;;11.85;6.53;;;6.70;99.90;;;;;;5103207;28;20058;-79
2023/04/05 08:26:11;;;;;;;12.55;5.78;;;6.20;99.90;;;;;;5102051;28;20042;-80
2023/04/05 08:28:37;;;;;;;10.52;6.20;;;6.30;99.90;;;;;;5085975;28;20051;-79
2023/04/05 08:31:03;;;;;;;10.93;6.32;;;6.40;99.90;;;;;;5084908;28;20036;-79
2023/04/05 08:33:29;;;;;;;9.75;5.63;;;7.20;99.90;;;;;;5104391;28;20051;-79
2023/04/05 08:35:56;;;;;;;12.10;4.72;;;7.00;99.90;;;;;;5103492;28;20114;-79
2023/04/05 08:38:22;;;;;;;9.68;4.80;;;7.70;99.90;;;;;;5102336;28;20046;-79
2023/04/05 08:40:48;;;;;;;9.13;5.00;;;7.40;99.90;;;;;;5104961;28;20106;-79
2023/04/05 08:43:39;;;;;;;8.40;5.15;;;7.00;99.90;;;;;;5102200;28;20165;-80
2023/04/05 08:46:08;;;;;;;11.32;5.40;;;7.40;99.90;;;;;;5103733;28;20055;-80
2023/04/05 08:48:38;;;;;;;9.77;4.13;;;7.30;99.90;;;;;;5102537;28;20050;-80
2023/04/05 08:51:04;;;;;;;6.00;4.25;;;7.40;99.90;;;;;;5102269;28;20135;-79
2023/04/05 08:53:31;;;;;;;9.63;4.28;;;7.60;99.90;;;;;;5102909;28;20175;-79
2023/04/05 08:56:00;;;;;;;7.90;4.00;;;7.70;99.90;;;;;;5101882;28;20112;-79
2023/04/05 08:58:26;;;;;;;9.32;4.47;;;7.80;99.90;;;;;;5086419;28;20432;-80
2023/04/05 09:00:54;;;;;;;12.52;5.03;;;7.90;99.90;;;;;;5102326;28;20379;-79
2023/04/05 09:03:27;;;;;;;9.38;4.32;;;8.10;99.90;;;;;;5102968;28;20048;-79
2023/04/05 09:05:57;;;;;;;8.43;4.45;;;8.00;99.90;;;;;;5102720;28;20055;-79
2023/04/05 09:08:23;;;;;;;7.78;3.65;;;8.50;99.90;;;;;;5102034;28;20043;-79
2023/04/05 09:10:52;;;;;;;7.80;3.47;;;8.50;99.90;;;;;;5103817;28;20043;-79
2023/04/05 09:13:18;;;;;;;7.15;3.83;;;8.30;99.90;;;;;;5101512;28;20044;-79
2023/04/05 09:15:45;;;;;;;7.25;4.35;;;8.50;99.90;;;;;;5086786;28;20066;-79
2023/04/05 09:18:11;;;;;;;5.65;3.55;;;9.00;99.90;;;;;;5101751;28;20489;-79
2023/04/05 09:20:37;;;;;;;8.15;4.07;;;8.70;99.90;;;;;;5085324;28;20160;-79
2023/04/05 09:23:03;;;;;;;5.75;3.42;;;8.90;99.90;;;;;;5102613;28;20094;-79
2023/04/05 09:25:37;;;;;;;4.57;3.28;;;9.20;99.90;;;;;;5101577;28;20116;-80
2023/04/05 09:28:07;;;;;;;5.03;3.25;;;9.40;99.90;;;;;;5102857;28;20052;-79
2023/04/05 09:30:36;;;;;;;6.13;3.72;;;9.50;99.90;;;;;;5103031;28;20040;-80
2023/04/05 09:33:02;;;;;;;5.55;3.60;;;9.60;99.90;;;;;;5086634;28;20048;-80
2023/04/05 09:35:32;;;;;;;3.88;2.80;;;9.60;99.90;;;;;;5101951;28;20146;-79
2023/04/05 09:37:59;;;;;;;8.75;3.20;;;9.80;99.90;;;;;;5103699;28;20044;-80
2023/04/05 09:40:46;;;;;;;5.50;3.05;;;9.90;99.90;;;;;;5104597;28;20482;-79
2023/04/05 09:43:32;;;;;;;5.85;2.78;;;9.90;98.70;;;;;;5105644;28;20088;-79
2023/04/05 09:45:58;;;;;;;6.13;3.30;;;10.00;98.90;;;;;;5106676;28;20559;-80
2023/04/05 09:48:50;;;;;;;6.95;3.28;;;10.60;98.70;;;;;;5106305;28;20056;-79
2023/04/05 09:51:17;;;;;;;6.85;3.08;;;10.30;98.00;;;;;;5105258;28;20048;-79
2023/04/05 09:54:09;;;;;;;7.10;3.72;;;10.50;98.20;;;;;;5106408;28;20059;-80
2023/04/05 09:56:40;;;;;;;5.87;3.73;;;10.60;97.50;;;;;;5106747;28;20379;-80
2023/04/05 09:59:10;;;;;;;7.18;3.70;;;10.70;97.10;;;;;;5105667;28;20164;-82
2023/04/05 10:01:38;;;;;;;5.90;2.72;;;10.80;96.50;;;;;;5088965;28;20040;-80
2023/04/05 10:04:04;;;;;;;6.68;2.58;;;11.00;96.30;;;;;;5105023;28;20388;-80
2023/04/05 10:06:40;;;;;;;5.97;2.92;;;11.10;95.50;;;;;;5089203;28;20351;-80
2023/04/05 10:09:08;;;;;;;7.07;3.03;;;11.10;94.30;;;;;;5104522;28;20043;-80
2023/04/05 10:11:36;;;;;;;9.07;3.55;;;11.20;95.00;;;;;;5072437;28;20047;-80
2023/04/05 10:14:03;;;;;;;6.65;3.10;;;11.10;93.90;;;;;;5087882;28;20411;-80
2023/04/05 10:16:35;;;;;;;5.13;3.00;;;10.80;93.50;;;;;;5105118;28;20561;-80
2023/04/05 10:19:04;;;;;;;10.35;3.67;;;10.70;93.40;;;;;;5105342;28;20051;-80
2023/04/05 10:21:34;;;;;;;10.02;3.30;;;10.30;93.40;;;;;;5104397;28;20039;-80
2023/04/05 10:24:17;;;;;;;5.85;2.72;;;10.00;92.90;;;;;;5105928;28;20520;-80
2023/04/05 10:27:14;;;;;;;4.85;2.70;;;10.10;92.80;;;;;;5104405;28;20087;-80
2023/04/05 10:30:03;;;;;;;5.03;3.05;;;10.30;92.60;;;;;;5104439;28;20047;-80
2023/04/05 10:32:38;;;;;;;7.65;2.83;;;10.40;93.00;;;;;;5105482;28;20550;-80
2023/04/05 10:35:16;;;;;;;5.20;2.70;;;10.50;93.30;;;;;;5104230;28;20118;-80
2023/04/05 10:37:52;;;;;;;5.82;3.10;;;10.60;91.60;;;;;;5088395;28;20047;-80
2023/04/05 10:40:23;;;;;;;5.10;2.50;;;10.70;91.10;;;;;;5088124;28;20075;-79
2023/04/05 10:42:49;;;;;;;7.80;3.22;;;10.90;91.40;;;;;;5104179;28;20035;-80
2023/04/05 10:45:18;;;;;;;9.70;3.15;;;11.10;90.80;;;;;;5105407;28;20466;-80
2023/04/05 10:47:53;;;;;;;4.22;2.63;;;11.30;90.20;;;;;;5103803;28;20042;-80
2023/04/05 10:50:23;;;;;;;6.40;3.20;;;11.50;89.30;;;;;;5105166;28;20054;-82
2023/04/05 10:52:51;;;;;;;5.05;2.88;;;11.70;87.80;;;;;;5086731;28;20104;-77
2023/04/05 10:55:18;;;;;;;4.43;2.30;;;11.80;86.40;;;;;;5103872;28;20574;-76
2023/04/05 10:57:45;;;;;;;6.90;2.40;;;12.00;86.90;;;;;;5105287;28;20063;-77
2023/04/05 11:00:13;;;;;;;6.68;2.83;;;12.10;85.90;;;;;;5104753;28;20055;-81
2023/04/05 11:02:39;;;;;;;6.20;2.65;;;12.20;85.20;;;;;;5088375;27;20127;-77
2023/04/05 11:05:05;;;;;;;6.60;3.20;;;12.30;83.60;;;;;;5125486;27;20176;-78
2023/04/05 11:07:43;;;;;;;5.13;2.80;;;12.30;83.60;;;;;;5107581;27;20068;-77
2023/04/05 11:10:16;;;;;;;5.93;3.20;;;12.50;80.50;;;;;;5108604;27;20430;-77
2023/04/05 11:12:45;;;;;;;10.77;3.10;;;12.60;81.30;;;;;;5089776;27;20050;-78
2023/04/05 11:15:29;;;;;;;5.35;2.92;;;12.70;79.40;;;;;;5091347;27;20043;-78
2023/04/05 11:18:09;;;;;;;3.22;2.80;;;12.70;77.20;;;;;;5106425;27;20035;-77
2023/04/05 11:20:44;;;;;;;8.07;3.22;;;12.70;75.20;;;;;;5107299;27;20051;-77
2023/04/05 11:23:11;;;;;;;5.32;2.60;;;12.60;74.70;;;;;;5107539;27;20051;-76
2023/04/05 11:25:41;;;;;;;6.68;3.47;;;12.50;74.60;;;;;;5125293;27;20115;-76
2023/04/05 11:28:07;;;;;;;9.13;2.65;;;12.50;73.70;;;;;;5126516;27;20078;-77
2023/04/05 11:30:47;;;;;;;7.30;3.30;;;12.50;73.30;;;;;;5106325;27;20054;-77
2023/04/05 11:33:35;;;;;;;5.30;3.17;;;12.60;73.00;;;;;;5107682;27;20107;-77
2023/04/05 11:36:02;;;;;;;3.28;2.40;;;12.70;72.30;;;;;;5126461;27;20419;-77
2023/04/05 11:38:28;;;;;;;7.75;3.13;;;12.90;74.20;;;;;;5106388;27;20046;-78
2023/04/05 11:41:16;;;;;;;5.97;2.70;;;12.10;73.50;;;;;;5107551;27;20071;-77
2023/04/05 11:43:50;;;;;;;4.78;2.88;;;13.00;71.60;;;;;;5124960;27;20057;-77
2023/04/05 11:46:17;;;;;;;7.00;3.05;;;13.00;72.40;;;;;;5089881;27;20482;-78
2023/04/05 11:48:48;;;;;;;5.93;3.00;;;13.20;72.70;;;;;;5090578;27;20122;-78
2023/04/05 11:51:15;;;;;;;3.70;2.20;;;13.20;71.00;;;;;;5106040;27;20043;-79
2023/04/05 11:53:46;;;;;;;4.40;2.83;;;13.30;70.60;;;;;;5090453;27;20095;-77
2023/04/05 11:56:14;;;;;;;5.68;2.90;;;13.40;70.10;;;;;;5124564;27;20046;-78
2023/04/05 11:58:41;;;;;;;6.20;2.55;;;13.40;70.60;;;;;;5125712;27;20437;-78
2023/04/05 12:01:08;;;;;;;8.50;3.10;;;13.30;70.50;;;;;;5090113;27;20047;-79
2023/04/05 12:03:35;;;;;;;5.90;3.17;;;13.30;69.90;;;;;;5106448;27;20425;-78
2023/04/05 12:06:05;;;;;;;6.95;2.70;;;13.30;69.00;;;;;;5106969;27;20080;-77
2023/04/05 12:08:37;;;;;;;5.25;2.70;;;13.30;68.80;;;;;;5124864;27;20500;-78
2023/04/05 12:11:07;;;;;;;4.13;2.38;;;13.40;68.80;;;;;;5126061;27;20391;-78
2023/04/05 12:13:34;;;;;;;4.93;2.47;;;13.50;68.50;;;;;;5105879;27;20043;-77
2023/04/05 12:16:05;;;;;;;3.47;2.53;;;13.50;67.20;;;;;;5107141;27;20406;-82
2023/04/05 12:18:33;;;;;;;7.75;3.10;;;13.50;66.10;;;;;;5106667;27;20099;-77
2023/04/05 12:21:00;;;;;;;5.78;2.65;;;13.40;65.50;;;;;;5105918;27;20453;-77
2023/04/05 12:23:27;;;;;;;4.07;2.65;;;13.50;65.70;;;;;;5125214;27;20107;-77
2023/04/05 12:25:54;;;;;;;8.85;2.42;;;13.40;64.80;;;;;;5088146;27;20081;-77
2023/04/05 12:28:20;;;;;;;12.02;3.13;;;13.40;65.00;;;;;;5125843;27;20046;-77
2023/04/05 12:30:56;;;;;;;6.07;2.35;;;13.50;65.30;;;;;;5105511;28;20047;-77
2023/04/05 12:33:30;;;;;;;5.35;2.88;;;13.60;64.50;;;;;;5106043;27;20535;-76
2023/04/05 12:35:57;;;;;;;6.97;2.60;;;13.70;63.40;;;;;;5125123;27;20047;-79
2023/04/05 12:38:28;;;;;;;5.05;2.92;;;13.70;64.50;;;;;;5105493;27;20055;-82
2023/04/05 12:40:54;;;;;;;9.88;3.00;;;13.70;63.00;;;;;;5107038;28;20050;-79
2023/04/05 12:43:19;;;;;;;4.28;2.60;;;13.70;63.70;;;;;;5105135;28;20401;-79
2023/04/05 12:45:49;;;;;;;7.20;2.83;;;13.60;63.00;;;;;;5107288;28;20380;-78
2023/04/05 12:48:21;;;;;;;5.95;3.10;;;13.60;63.90;;;;;;5105632;28;20126;-78
2023/04/05 12:50:50;;;;;;;6.97;2.78;;;13.80;64.00;;;;;;5105954;28;20055;-79
2023/04/05 12:53:27;;;;;;;6.22;2.92;;;13.80;63.70;;;;;;5073146;28;20098;-79
2023/04/05 12:55:57;;;;;;;5.32;3.05;;;13.70;62.10;;;;;;5104958;28;20051;-79